Time;durP1;ratioP1;P1;durP2;ratioP2;P2;SDS_P1;SDS_P2;PMS_P1;PMS_P2;Temp;Humidity;BMP_temperature;BMP_pressure;BME280_temperature;BME280_humidity;BME280_pressure;Samples;Min_cycle;Max_cycle;Signal;HPM_P1;HPM_P2
2021/12/20 00:00:17;;;;;;;3.30;2.65;;;;;;;-2.55;76.80;96751.03;4851392;29;20052;-55
2021/12/20 00:02:45;;;;;;;4.13;3.00;;;;;;;-2.53;77.37;96770.41;4850996;29;20030;-55
2021/12/20 00:05:12;;;;;;;3.15;2.60;;;;;;;-2.68;77.70;96758.88;4850773;29;20090;-55
2021/12/20 00:07:38;;;;;;;3.53;2.67;;;;;;;-2.50;77.62;96757.69;4835440;29;20042;-56
2021/12/20 00:10:04;;;;;;;4.05;2.67;;;;;;;-2.59;77.08;96747.75;4851033;29;20033;-55
2021/12/20 00:12:30;;;;;;;3.78;2.47;;;;;;;-2.60;77.27;96759.53;4851177;29;20338;-55
2021/12/20 00:14:56;;;;;;;4.60;2.95;;;;;;;-2.81;76.50;96757.38;4850976;29;20053;-54
2021/12/20 00:17:21;;;;;;;3.67;2.78;;;;;;;-2.56;77.53;96769.66;4851077;29;20105;-55
2021/12/20 00:19:47;;;;;;;3.13;2.30;;;;;;;-2.49;78.04;96768.69;4842170;29;20120;-55
2021/12/20 00:22:13;;;;;;;2.28;2.08;;;;;;;-2.51;78.18;96761.13;4843145;29;20049;-55
2021/12/20 00:24:38;;;;;;;3.20;2.50;;;;;;;-2.57;76.26;96778.94;4850109;29;20042;-55
2021/12/20 00:27:07;;;;;;;3.88;2.13;;;;;;;-2.87;76.39;96760.00;4849829;29;20030;-54
2021/12/20 00:29:36;;;;;;;2.22;2.03;;;;;;;-2.68;77.67;96766.47;4850385;29;20021;-55
2021/12/20 00:32:02;;;;;;;3.17;2.20;;;;;;;-2.66;76.87;96779.09;4850961;29;20266;-55
2021/12/20 00:34:28;;;;;;;2.63;2.00;;;;;;;-2.71;76.16;96776.63;4834334;29;20041;-55
2021/12/20 00:37:02;;;;;;;2.83;2.17;;;;;;;-2.58;77.18;96787.38;4851058;29;20088;-56
2021/12/20 00:42:12;;;;;;;2.38;2.17;;;;;;;-2.70;75.71;96788.44;4850134;29;20077;-55
2021/12/20 00:44:37;;;;;;;2.08;1.88;;;;;;;-2.92;75.37;96780.34;4850612;29;20226;-55
2021/12/20 00:47:04;;;;;;;2.15;1.90;;;;;;;-2.69;75.91;96797.69;4850570;29;20061;-55
2021/12/20 00:49:30;;;;;;;3.00;1.73;;;;;;;-2.65;76.89;96794.25;4850670;29;20038;-56
2021/12/20 00:51:55;;;;;;;2.60;2.40;;;;;;;-2.85;75.76;96801.31;4850681;29;20381;-56
2021/12/20 00:54:21;;;;;;;2.92;2.00;;;;;;;-2.80;75.43;96804.63;4850606;29;20038;-55
2021/12/20 00:56:46;;;;;;;2.30;2.00;;;;;;;-2.84;75.62;96810.59;4834261;29;20025;-55
2021/12/20 00:59:12;;;;;;;2.53;1.75;;;;;;;-2.90;76.76;96816.59;4850561;29;20034;-55
2021/12/20 01:01:37;;;;;;;2.15;1.92;;;;;;;-2.92;75.13;96817.47;4850676;29;20195;-55
2021/12/20 01:04:03;;;;;;;2.42;1.92;;;;;;;-3.01;76.35;96821.78;4835064;29;20080;-54
2021/12/20 01:06:29;;;;;;;1.80;1.40;;;;;;;-2.91;74.81;96829.28;4852782;29;20303;-54
2021/12/20 01:08:55;;;;;;;2.38;1.95;;;;;;;-3.05;75.62;96825.25;4853928;29;20336;-55
2021/12/20 01:11:25;;;;;;;1.83;1.50;;;;;;;-2.99;75.04;96832.75;4842001;29;20034;-55
2021/12/20 01:13:50;;;;;;;1.95;1.75;;;;;;;-3.06;74.87;96823.56;4853847;29;20041;-54
2021/12/20 01:16:16;;;;;;;2.80;1.70;;;;;;;-3.09;75.08;96836.28;4851481;29;20034;-55
2021/12/20 01:18:42;;;;;;;2.35;1.85;;;;;;;-3.00;74.81;96838.66;4853756;29;20065;-55
2021/12/20 01:21:08;;;;;;;2.00;1.58;;;;;;;-3.13;76.00;96850.66;4853853;29;20037;-55
2021/12/20 01:23:36;;;;;;;2.08;1.80;;;;;;;-3.15;75.09;96851.53;4853736;29;20306;-55
2021/12/20 01:26:03;;;;;;;2.08;1.63;;;;;;;-3.23;74.58;96866.00;4854721;29;20050;-55
2021/12/20 01:28:29;;;;;;;2.42;1.70;;;;;;;-3.13;75.33;96867.53;4852533;29;20030;-55
2021/12/20 01:30:55;;;;;;;2.53;1.85;;;;;;;-3.11;75.92;96868.34;4852677;29;20037;-55
2021/12/20 01:33:20;;;;;;;2.47;1.60;;;;;;;-3.32;77.20;96877.88;4852484;29;20328;-55
2021/12/20 01:35:46;;;;;;;2.42;1.80;;;;;;;-3.14;76.78;96868.38;4853314;29;20038;-55
2021/12/20 01:38:12;;;;;;;2.47;1.67;;;;;;;-3.22;76.36;96868.50;4853372;29;20037;-55
2021/12/20 01:40:38;;;;;;;1.70;1.60;;;;;;;-3.29;77.70;96874.50;4823773;29;20287;-55
2021/12/20 01:43:06;;;;;;;2.30;1.70;;;;;;;-3.20;76.11;96874.34;4844503;29;20398;-54
2021/12/20 01:45:32;;;;;;;1.70;1.60;;;;;;;-3.15;77.49;96877.69;4853308;29;20226;-54
2021/12/20 01:48:11;;;;;;;1.92;1.73;;;;;;;-3.34;76.24;96878.75;4852936;29;20022;-55
2021/12/20 01:53:15;;;;;;;2.03;1.60;;;;;;;-3.28;76.35;96903.16;4853318;29;20036;-55
2021/12/20 01:55:41;;;;;;;1.60;1.40;;;;;;;-3.38;76.39;96884.69;4852106;29;20037;-54
2021/12/20 01:58:07;;;;;;;2.03;1.67;;;;;;;-3.39;74.85;96893.13;4853350;29;20078;-54
2021/12/20 02:00:34;;;;;;;3.25;2.10;;;;;;;-3.39;75.71;96894.00;4853131;29;20038;-54
2021/12/20 02:03:02;;;;;;;2.80;1.60;;;;;;;-3.27;76.59;96902.31;4852855;29;20026;-54
2021/12/20 02:08:14;;;;;;;1.80;1.50;;;;;;;-3.34;75.01;96901.53;4853080;29;20431;-54
2021/12/20 02:10:40;;;;;;;1.50;1.40;;;;;;;-3.57;75.49;96905.16;4852820;29;20041;-56
2021/12/20 02:13:06;;;;;;;2.05;1.40;;;;;;;-3.52;74.67;96908.47;4851556;29;20314;-54
2021/12/20 02:15:32;;;;;;;1.67;1.58;;;;;;;-3.60;74.89;96922.88;4851598;29;20126;-54
2021/12/20 02:17:57;;;;;;;1.98;1.55;;;;;;;-3.57;74.00;96911.91;4851943;29;20226;-56
2021/12/20 02:20:30;;;;;;;2.00;1.58;;;;;;;-3.48;74.98;96912.66;4846465;29;20030;-56
2021/12/20 02:22:57;;;;;;;1.88;1.50;;;;;;;-3.52;75.65;96925.31;4836588;29;20083;-55
2021/12/20 02:25:24;;;;;;;2.45;1.60;;;;;;;-3.55;74.92;96928.75;4853019;29;20057;-55
2021/12/20 02:27:49;;;;;;;1.50;1.30;;;;;;;-3.76;74.88;96917.16;4834460;29;20042;-55
2021/12/20 02:38:29;;;;;;;2.35;1.50;;;;;;;-3.80;74.31;96943.31;4826515;29;20049;-54
2021/12/20 02:41:25;;;;;;;1.77;1.40;;;;;;;-4.06;74.19;96886.25;4852456;29;20049;-54
2021/12/20 02:43:55;;;;;;;1.83;1.60;;;;;;;-3.62;74.60;96956.63;4851663;29;20114;-52
2021/12/20 02:49:11;;;;;;;1.80;1.58;;;;;;;-4.05;73.32;96902.22;4852626;29;20067;-54
2021/12/20 02:51:38;;;;;;;2.05;1.65;;;;;;;-3.76;73.40;96970.25;4851220;29;20037;-54
2021/12/20 02:54:07;;;;;;;1.73;1.48;;;;;;;-3.71;74.76;96971.03;4851563;29;20032;-54
2021/12/20 02:56:32;;;;;;;2.72;1.30;;;;;;;-4.01;74.08;96969.59;4851454;29;20037;-55
2021/12/20 02:58:58;;;;;;;1.60;1.40;;;;;;;-3.88;74.68;96981.28;4835350;29;20044;-54
2021/12/20 03:01:25;;;;;;;1.73;1.48;;;;;;;-3.84;73.79;96985.47;4850312;29;20330;-54
2021/12/20 03:03:53;;;;;;;1.85;1.67;;;;;;;-4.14;76.14;96930.94;4850731;29;20057;-54
2021/12/20 03:06:46;;;;;;;1.92;1.63;;;;;;;-3.84;75.19;97000.63;4852068;29;20057;-54
2021/12/20 03:09:17;;;;;;;1.67;1.58;;;;;;;-4.36;74.59;96928.59;4850628;29;20097;-53
2021/12/20 03:11:45;;;;;;;2.40;1.60;;;;;;;-4.30;75.07;96954.63;4835575;29;20065;-53
2021/12/20 03:16:43;;;;;;;3.20;1.70;;;;;;;-4.04;74.84;96990.66;4851880;29;20037;-53
2021/12/20 03:19:09;;;;;;;2.22;1.67;;;;;;;-4.08;76.14;97005.88;4847943;29;20030;-53
2021/12/20 03:21:34;;;;;;;1.60;1.50;;;;;;;-4.02;76.79;97011.72;4851756;29;20041;-53
2021/12/20 03:24:00;;;;;;;1.55;1.30;;;;;;;-4.11;74.69;97014.31;4835015;29;20191;-53
2021/12/20 03:26:26;;;;;;;1.75;1.38;;;;;;;-4.00;76.65;97012.53;4851304;29;20061;-54
2021/12/20 03:28:51;;;;;;;3.35;1.80;;;;;;;-3.97;76.70;97021.81;4851355;29;20033;-53
2021/12/20 03:31:18;;;;;;;3.33;1.60;;;;;;;-4.10;74.02;97030.31;4850295;29;20030;-53
2021/12/20 03:33:44;;;;;;;2.70;1.80;;;;;;;-4.17;75.92;97021.94;4851319;29;20030;-53
2021/12/20 03:36:09;;;;;;;2.80;1.63;;;;;;;-4.22;75.59;97027.03;4850053;29;20266;-53
2021/12/20 03:38:35;;;;;;;3.05;1.80;;;;;;;-4.41;75.34;97018.69;4851155;29;20254;-53
2021/12/20 03:41:01;;;;;;;2.55;1.77;;;;;;;-4.28;74.96;97036.31;4850319;29;20038;-53
2021/12/20 03:43:31;;;;;;;1.60;1.40;;;;;;;-4.16;74.94;97039.63;4850403;29;20037;-54
2021/12/20 03:46:00;;;;;;;1.60;1.50;;;;;;;-4.26;75.58;97029.56;4850425;29;20142;-54
2021/12/20 03:48:27;;;;;;;2.13;1.58;;;;;;;-4.43;75.31;97045.66;4851960;29;20034;-54
2021/12/20 03:50:54;;;;;;;4.63;1.90;;;;;;;-4.38;75.42;97069.19;4851119;29;20068;-54
2021/12/20 03:53:20;;;;;;;1.80;1.48;;;;;;;-4.27;74.50;97050.63;4851310;29;20030;-54
2021/12/20 03:55:45;;;;;;;1.73;1.60;;;;;;;-4.26;74.31;97058.22;4850990;29;20353;-54
2021/12/20 03:58:11;;;;;;;1.70;1.45;;;;;;;-4.30;73.70;97063.25;4851149;29;20037;-54
2021/12/20 04:00:37;;;;;;;1.98;1.60;;;;;;;-4.46;72.52;97062.50;4834776;29;20034;-53
2021/12/20 04:03:08;;;;;;;1.85;1.50;;;;;;;-4.42;74.81;97075.09;4850823;29;20025;-53
2021/12/20 04:05:34;;;;;;;1.95;1.50;;;;;;;-4.60;73.92;97065.94;4833091;29;20048;-55
2021/12/20 04:07:59;;;;;;;2.33;1.70;;;;;;;-4.52;74.78;97081.03;4849701;29;20219;-54
2021/12/20 04:10:25;;;;;;;1.95;1.65;;;;;;;-4.56;73.77;97081.91;4851020;29;20118;-56
2021/12/20 04:12:51;;;;;;;1.95;1.70;;;;;;;-4.69;74.67;97081.97;4851118;29;20109;-55
2021/12/20 04:15:16;;;;;;;4.05;1.88;;;;;;;-4.62;76.40;97086.97;4850657;29;20371;-53
2021/12/20 04:17:42;;;;;;;2.50;1.70;;;;;;;-4.62;75.05;97085.28;4850808;29;20029;-54
2021/12/20 04:20:08;;;;;;;2.45;1.75;;;;;;;-4.66;75.57;97090.34;4818709;29;20196;-53
2021/12/20 04:22:34;;;;;;;1.58;1.38;;;;;;;-4.59;75.41;97092.00;4850545;29;20038;-54
2021/12/20 04:24:59;;;;;;;2.30;1.90;;;;;;;-4.58;75.22;97103.81;4850354;29;20154;-54
2021/12/20 04:27:25;;;;;;;2.05;1.85;;;;;;;-4.60;74.36;97096.22;4851609;29;20037;-53
2021/12/20 04:29:53;;;;;;;2.10;1.90;;;;;;;-4.71;75.52;97108.88;4850836;29;20307;-54
2021/12/20 04:32:19;;;;;;;2.85;2.10;;;;;;;-4.85;75.63;97108.06;4845537;29;20030;-53
2021/12/20 04:34:44;;;;;;;2.55;2.00;;;;;;;-4.73;76.35;97110.59;4849529;29;20032;-53
2021/12/20 04:37:10;;;;;;;2.30;1.85;;;;;;;-4.75;75.22;97109.72;4850094;29;20261;-53
2021/12/20 04:39:36;;;;;;;2.63;2.10;;;;;;;-4.71;74.87;97118.16;4850067;29;20041;-54
2021/12/20 04:42:01;;;;;;;2.58;1.98;;;;;;;-4.69;74.71;97127.41;4853628;29;20033;-55
2021/12/20 04:44:27;;;;;;;2.67;1.75;;;;;;;-4.71;75.02;97123.19;4853964;29;20037;-54
2021/12/20 04:46:52;;;;;;;2.63;1.70;;;;;;;-4.70;74.55;97128.25;4849742;29;20222;-55
2021/12/20 04:49:18;;;;;;;3.60;1.75;;;;;;;-4.79;73.54;97138.34;4853977;29;20314;-55
2021/12/20 04:51:44;;;;;;;2.92;2.17;;;;;;;-4.84;74.21;97140.06;4852512;29;20041;-55
2021/12/20 04:54:10;;;;;;;2.80;1.67;;;;;;;-4.93;75.10;97142.56;4852245;29;20044;-56
2021/12/20 04:56:36;;;;;;;3.53;2.05;;;;;;;-4.96;76.04;97148.50;4836199;29;20033;-55
2021/12/20 04:59:02;;;;;;;3.03;1.67;;;;;;;-4.85;76.21;97156.84;4837399;29;20033;-55
2021/12/20 05:01:28;;;;;;;3.53;2.00;;;;;;;-4.85;74.44;97153.50;4853757;29;20056;-57
2021/12/20 05:03:53;;;;;;;2.33;1.88;;;;;;;-5.06;75.11;97156.88;4853307;29;20290;-55
2021/12/20 05:06:19;;;;;;;5.05;2.10;;;;;;;-4.90;74.69;97167.84;4853761;29;20216;-56
2021/12/20 05:08:50;;;;;;;5.00;2.10;;;;;;;-5.11;73.92;97164.47;4862549;29;20037;-55
2021/12/20 05:11:17;;;;;;;1.88;1.65;;;;;;;-5.08;75.19;97179.59;4842320;29;20108;-55
2021/12/20 05:13:43;;;;;;;3.47;2.38;;;;;;;-5.07;73.69;97183.81;4853703;29;20101;-56
2021/12/20 05:16:09;;;;;;;2.88;2.28;;;;;;;-4.96;75.58;97185.47;4853596;29;20281;-56
2021/12/20 05:18:34;;;;;;;2.45;2.03;;;;;;;-5.04;75.13;97191.38;4854466;29;20029;-55
2021/12/20 05:21:00;;;;;;;2.88;1.98;;;;;;;-4.97;74.57;97191.38;4824131;29;20040;-55
2021/12/20 05:23:26;;;;;;;2.50;1.70;;;;;;;-4.98;73.24;97199.78;4853703;29;20042;-55
2021/12/20 05:25:52;;;;;;;2.65;2.10;;;;;;;-4.86;74.23;97207.34;4853589;29;20064;-55
2021/12/20 05:28:17;;;;;;;2.28;1.95;;;;;;;-4.86;75.38;97205.69;4853636;29;20322;-55
2021/12/20 05:30:45;;;;;;;4.63;2.22;;;;;;;-4.93;74.98;97205.66;4853633;29;20051;-56
2021/12/20 05:33:11;;;;;;;5.28;2.10;;;;;;;-5.00;76.41;97203.97;4853424;29;20042;-55
2021/12/20 05:35:37;;;;;;;2.60;2.00;;;;;;;-4.88;74.62;97221.66;4853031;29;20045;-55
2021/12/20 05:38:02;;;;;;;3.92;2.30;;;;;;;-5.01;75.89;97222.50;4853433;29;20053;-56
2021/12/20 05:40:28;;;;;;;2.92;2.10;;;;;;;-5.01;74.66;97225.03;4853332;29;20405;-55
2021/12/20 05:42:54;;;;;;;3.05;1.95;;;;;;;-5.05;73.52;97225.00;4852928;29;20041;-55
2021/12/20 05:45:20;;;;;;;3.40;2.10;;;;;;;-5.06;74.47;97225.88;4852110;29;20045;-55
2021/12/20 05:47:46;;;;;;;2.83;1.98;;;;;;;-5.07;74.47;97231.75;4853341;29;20030;-55
2021/12/20 05:50:15;;;;;;;3.22;2.30;;;;;;;-5.44;74.68;97166.13;4853266;29;20053;-55
2021/12/20 05:52:41;;;;;;;4.53;2.13;;;;;;;-4.93;75.00;97235.94;4852932;29;20099;-55
2021/12/20 05:55:08;;;;;;;3.92;2.20;;;;;;;-4.90;72.95;97234.28;4853305;29;20037;-56
2021/12/20 05:57:34;;;;;;;7.13;2.08;;;;;;;-4.88;74.44;97245.22;4853066;29;20381;-55
2021/12/20 06:00:01;;;;;;;4.13;2.63;;;;;;;-5.15;73.41;97241.00;4851508;29;20357;-55
2021/12/20 06:02:27;;;;;;;5.75;2.42;;;;;;;-5.07;74.38;97249.41;4852439;29;20305;-55
2021/12/20 06:04:52;;;;;;;3.63;2.35;;;;;;;-5.01;74.41;97253.63;4857038;29;20037;-55
2021/12/20 06:07:19;;;;;;;5.90;2.45;;;;;;;-5.06;73.34;97252.75;4865010;29;20053;-55
2021/12/20 06:09:46;;;;;;;2.22;2.03;;;;;;;-5.25;72.46;97256.97;4835975;29;20357;-56
2021/12/20 06:12:12;;;;;;;6.03;2.40;;;;;;;-5.14;74.76;97270.44;4851832;29;20073;-54
2021/12/20 06:14:37;;;;;;;3.83;2.42;;;;;;;-5.08;74.33;97270.44;4852495;29;20037;-58
2021/12/20 06:17:03;;;;;;;2.67;1.98;;;;;;;-5.23;72.12;97278.81;4835979;29;20108;-55
2021/12/20 06:19:29;;;;;;;2.65;2.17;;;;;;;-5.31;73.91;97283.00;4850519;29;20026;-55
2021/12/20 06:21:55;;;;;;;4.55;2.60;;;;;;;-5.23;74.63;97300.66;4851980;29;20212;-55
2021/12/20 06:24:22;;;;;;;3.53;2.28;;;;;;;-5.26;73.00;97293.09;4834221;29;20042;-56
2021/12/20 06:26:48;;;;;;;3.25;2.47;;;;;;;-5.23;72.11;97313.28;4851999;29;20034;-55
2021/12/20 06:29:14;;;;;;;4.20;2.42;;;;;;;-5.41;72.63;97304.84;4851184;29;20074;-56
2021/12/20 06:31:39;;;;;;;4.30;2.50;;;;;;;-5.28;73.50;97308.22;4852270;29;20026;-55
2021/12/20 06:34:05;;;;;;;2.75;2.40;;;;;;;-5.46;74.21;97296.41;4850924;29;20037;-56
2021/12/20 06:36:31;;;;;;;4.45;2.50;;;;;;;-5.34;73.89;97312.41;4851651;29;20255;-55
2021/12/20 06:38:57;;;;;;;4.07;2.65;;;;;;;-5.33;72.65;97312.44;4852114;29;20243;-56
2021/12/20 06:41:24;;;;;;;3.95;2.30;;;;;;;-5.29;74.12;97320.84;4852457;29;20036;-55
2021/12/20 06:43:49;;;;;;;5.05;2.53;;;;;;;-5.29;72.69;97333.44;4836382;29;20087;-55
2021/12/20 06:46:17;;;;;;;6.43;3.15;;;;;;;-5.36;71.67;97327.53;4851881;29;20042;-56
2021/12/20 06:48:43;;;;;;;5.13;2.92;;;;;;;-5.22;73.10;97338.50;4820164;29;20026;-56
2021/12/20 06:51:09;;;;;;;3.15;2.25;;;;;;;-5.15;73.52;97341.91;4852239;29;20034;-55
2021/12/20 06:53:35;;;;;;;3.92;2.90;;;;;;;-5.13;73.65;97337.72;4852200;29;20038;-55
2021/12/20 06:56:00;;;;;;;3.75;2.50;;;;;;;-5.18;72.31;97351.16;4852026;29;20252;-56
2021/12/20 06:58:26;;;;;;;3.72;2.50;;;;;;;-5.00;74.06;97346.16;4849467;29;20038;-56
2021/12/20 07:00:52;;;;;;;2.65;2.15;;;;;;;-5.24;72.15;97355.34;4851821;29;20271;-56
2021/12/20 07:03:19;;;;;;;6.20;3.17;;;;;;;-5.19;73.54;97345.25;4850003;29;20030;-55
2021/12/20 07:05:45;;;;;;;4.78;2.78;;;;;;;-5.35;70.63;97362.03;4850300;29;20034;-55
2021/12/20 07:08:10;;;;;;;4.40;2.58;;;;;;;-5.30;73.31;97374.63;4851799;29;20113;-55
2021/12/20 07:10:36;;;;;;;3.28;2.38;;;;;;;-5.16;72.69;97362.91;4851329;29;20040;-56
2021/12/20 07:13:02;;;;;;;3.58;2.60;;;;;;;-5.15;72.32;97383.97;4851688;29;20242;-56
2021/12/20 07:15:27;;;;;;;4.63;2.90;;;;;;;-4.95;74.10;97387.38;4851580;29;20038;-56
2021/12/20 07:17:53;;;;;;;3.67;2.88;;;;;;;-5.10;70.73;97382.28;4851536;29;20034;-56
2021/12/20 07:20:19;;;;;;;5.40;3.10;;;;;;;-5.15;72.97;97399.94;4848553;29;20034;-56
2021/12/20 07:22:45;;;;;;;4.10;2.47;;;;;;;-5.08;72.39;97391.53;4834972;29;20026;-56
2021/12/20 07:25:10;;;;;;;2.78;2.47;;;;;;;-5.23;72.08;97401.56;4849842;29;20046;-56
2021/12/20 07:27:36;;;;;;;5.25;2.63;;;;;;;-5.21;72.74;97395.69;4850793;29;20045;-57
2021/12/20 07:30:04;;;;;;;4.70;2.45;;;;;;;-5.56;71.17;97345.13;4850806;29;20041;-57
2021/12/20 07:32:29;;;;;;;3.92;2.95;;;;;;;-5.26;72.17;97406.59;4851268;29;20332;-55
2021/12/20 07:34:55;;;;;;;4.65;3.00;;;;;;;-5.26;72.70;97401.56;4850388;29;20030;-55
2021/12/20 07:37:22;;;;;;;4.38;2.80;;;;;;;-5.16;71.59;97420.94;4849784;29;20259;-56
2021/12/20 07:39:47;;;;;;;6.22;2.80;;;;;;;-5.39;71.53;97421.69;4850604;29;20044;-56
2021/12/20 07:42:13;;;;;;;3.58;2.80;;;;;;;-5.24;71.28;97420.91;4852941;29;20055;-57
2021/12/20 07:44:39;;;;;;;4.55;2.60;;;;;;;-5.39;70.47;97426.75;4849874;29;20033;-55
2021/12/20 07:47:04;;;;;;;4.38;2.55;;;;;;;-5.45;71.13;97425.88;4849180;29;20049;-55
2021/12/20 07:49:30;;;;;;;4.38;2.50;;;;;;;-5.40;70.50;97426.72;4850764;29;20243;-56
2021/12/20 07:51:56;;;;;;;2.95;2.47;;;;;;;-5.23;70.88;97426.78;4850022;29;20114;-55
2021/12/20 07:54:22;;;;;;;5.53;3.05;;;;;;;-5.06;71.54;97434.44;4851207;29;20034;-56
2021/12/20 07:56:48;;;;;;;4.70;2.88;;;;;;;-5.22;70.69;97419.22;4850957;29;20042;-60
2021/12/20 07:59:13;;;;;;;5.07;2.90;;;;;;;-5.16;70.75;97446.16;4850893;29;20086;-56
2021/12/20 08:01:39;;;;;;;3.80;2.58;;;;;;;-5.11;70.56;97449.56;4849667;29;20267;-55
2021/12/20 08:04:07;;;;;;;5.05;3.35;;;;;;;-5.22;71.68;97458.75;4850763;29;20322;-56
2021/12/20 08:06:32;;;;;;;5.82;3.30;;;;;;;-5.29;70.42;97470.50;4850362;29;20172;-56
2021/12/20 08:08:58;;;;;;;5.40;3.30;;;;;;;-5.02;73.19;97461.38;4850674;29;20349;-56
2021/12/20 08:11:24;;;;;;;7.22;3.17;;;;;;;-5.50;71.83;97458.63;4850669;29;20033;-56
2021/12/20 08:13:49;;;;;;;4.65;2.97;;;;;;;-5.42;70.74;97463.69;4850644;29;20040;-56
2021/12/20 08:16:19;;;;;;;5.50;2.90;;;;;;;-5.29;72.38;97445.25;4848741;29;20029;-56
2021/12/20 08:18:45;;;;;;;5.38;2.83;;;;;;;-5.08;70.06;97469.75;4847697;29;20069;-55
2021/12/20 08:21:14;;;;;;;4.03;2.85;;;;;;;-5.16;69.13;97471.41;4850623;29;20033;-55
2021/12/20 08:23:40;;;;;;;7.28;4.38;;;;;;;-5.10;71.25;97476.50;4850732;29;20046;-55
2021/12/20 08:26:07;;;;;;;4.03;2.80;;;;;;;-5.13;72.01;97479.00;4850153;29;20065;-56
2021/12/20 08:28:35;;;;;;;6.47;2.50;;;;;;;-5.34;70.57;97489.81;4850686;29;20037;-55
2021/12/20 08:31:02;;;;;;;3.38;2.33;;;;;;;-5.34;69.92;97487.28;4850693;29;20034;-56
2021/12/20 08:33:28;;;;;;;3.42;2.33;;;;;;;-5.43;68.90;97495.66;4850557;29;20765;-55
2021/12/20 08:35:53;;;;;;;4.25;2.78;;;;;;;-5.29;68.75;97492.34;4818402;29;20045;-55
2021/12/20 08:38:19;;;;;;;3.30;2.65;;;;;;;-5.20;69.91;97505.03;4850679;29;20076;-55
2021/12/20 08:40:47;;;;;;;3.90;2.45;;;;;;;-5.25;69.39;97499.09;4834965;29;20022;-56
2021/12/20 08:43:15;;;;;;;6.15;3.20;;;;;;;-5.47;69.02;97505.69;4850070;29;20032;-57
2021/12/20 08:45:41;;;;;;;4.78;2.85;;;;;;;-5.39;69.19;97516.66;4850374;29;20622;-56
2021/12/20 08:48:07;;;;;;;4.05;2.80;;;;;;;-5.55;68.27;97516.56;4834545;29;20057;-56
2021/12/20 08:50:33;;;;;;;5.07;2.55;;;;;;;-5.40;69.05;97520.03;4850435;29;20037;-56
2021/12/20 08:52:59;;;;;;;5.75;2.67;;;;;;;-5.30;70.39;97525.97;4835173;29;20334;-56
2021/12/20 08:55:25;;;;;;;3.83;2.60;;;;;;;-5.36;68.83;97524.25;4850796;29;20046;-55
2021/12/20 08:57:51;;;;;;;4.82;3.00;;;;;;;-5.19;69.78;97531.94;4850185;29;20053;-56
2021/12/20 09:00:22;;;;;;;4.45;2.70;;;;;;;-5.54;70.06;97517.44;4849957;29;20398;-57
2021/12/20 09:02:48;;;;;;;6.95;2.72;;;;;;;-5.14;68.95;97535.34;4850133;29;20038;-57
2021/12/20 09:05:14;;;;;;;4.78;2.60;;;;;;;-5.10;68.25;97534.53;4849856;29;20030;-56
2021/12/20 09:07:41;;;;;;;4.93;2.97;;;;;;;-5.25;68.22;97531.91;4848724;29;20330;-57
2021/12/20 09:10:09;;;;;;;3.13;2.50;;;;;;;-5.38;68.90;97541.06;4850196;29;20207;-56
2021/12/20 09:12:35;;;;;;;4.93;2.70;;;;;;;-5.52;70.12;97538.44;4849916;29;20050;-56
2021/12/20 09:15:01;;;;;;;4.30;2.60;;;;;;;-5.52;68.90;97533.41;4847096;29;20476;-56
2021/12/20 09:17:29;;;;;;;5.05;2.88;;;;;;;-5.48;70.44;97551.94;4849684;29;20093;-55
2021/12/20 09:19:54;;;;;;;5.35;2.92;;;;;;;-5.43;71.12;97555.31;4849768;29;20041;-57
2021/12/20 09:22:26;;;;;;;4.50;3.25;;;;;;;-5.50;69.39;97551.91;4849882;29;20037;-56
2021/12/20 09:24:51;;;;;;;;;;;;;;;-5.44;70.00;97546.91;4848572;29;20042;-56
2021/12/20 09:27:17;;;;;;;3.72;2.55;;;;;;;-5.41;70.31;97557.00;4850045;29;19916;-56
2021/12/20 09:29:43;;;;;;;3.35;2.70;;;;;;;-5.44;70.33;97557.00;4836438;29;20326;-55
2021/12/20 09:32:08;;;;;;;3.70;2.97;;;;;;;-5.24;72.02;97569.75;4836489;29;20034;-56
2021/12/20 09:34:34;;;;;;;4.07;2.85;;;;;;;-5.32;72.46;97578.94;4836795;29;20092;-56
2021/12/20 09:37:04;;;;;;;4.47;2.70;;;;;;;-5.37;70.79;97568.81;4853143;29;20034;-56
2021/12/20 09:39:31;;;;;;;5.40;2.63;;;;;;;-5.76;68.10;97572.72;4852235;29;20044;-56
2021/12/20 09:42:00;;;;;;;4.53;2.70;;;;;;;-6.11;68.46;97530.41;4851687;29;20058;-55
2021/12/20 09:44:27;;;;;;;5.18;2.70;;;;;;;-6.17;68.38;97511.88;4852834;29;20044;-56
2021/12/20 09:46:57;;;;;;;5.10;3.30;;;;;;;-5.56;71.73;97577.06;4852590;29;20074;-56
2021/12/20 09:49:24;;;;;;;3.40;2.60;;;;;;;-5.60;71.43;97582.91;4852684;29;20344;-57
2021/12/20 09:51:50;;;;;;;4.28;2.40;;;;;;;-5.52;70.35;97601.47;4833088;29;20028;-56
2021/12/20 09:54:16;;;;;;;4.32;2.67;;;;;;;-5.60;70.11;97601.44;4851699;29;20064;-56
2021/12/20 09:56:43;;;;;;;4.05;2.53;;;;;;;-5.62;70.97;97592.16;4852079;29;20225;-56
2021/12/20 09:59:16;;;;;;;3.25;2.22;;;;;;;-5.81;70.21;97538.22;4850529;29;20352;-56
2021/12/20 10:01:44;;;;;;;5.72;2.45;;;;;;;-5.65;70.15;97550.09;4853414;29;20094;-57
2021/12/20 10:04:10;;;;;;;4.55;2.47;;;;;;;-5.40;70.19;97609.16;4853510;29;20082;-57
2021/12/20 10:06:36;;;;;;;4.57;3.00;;;;;;;-5.46;69.81;97621.69;4853046;29;20061;-57
2021/12/20 10:09:11;;;;;;;3.65;2.13;;;;;;;-6.00;69.73;97617.84;4851792;29;20033;-56
2021/12/20 10:11:38;;;;;;;3.35;2.42;;;;;;;-5.71;68.26;97615.59;4852697;29;20052;-56
2021/12/20 10:14:09;;;;;;;5.00;3.00;;;;;;;-6.21;69.25;97563.91;4852942;29;20045;-56
2021/12/20 10:16:37;;;;;;;4.45;2.88;;;;;;;-5.76;69.08;97617.22;4852919;29;20033;-56
2021/12/20 10:19:05;;;;;;;3.40;2.63;;;;;;;-5.75;68.48;97634.03;4834497;29;20262;-56
2021/12/20 10:21:36;;;;;;;2.80;2.50;;;;;;;-5.55;69.27;97632.53;4844850;29;20038;-55
2021/12/20 10:24:02;;;;;;;3.80;2.60;;;;;;;-5.61;68.67;97642.59;4834891;29;20059;-56
2021/12/20 10:26:28;;;;;;;6.63;2.80;;;;;;;-5.90;68.14;97638.09;4851861;29;20030;-56
2021/12/20 10:28:54;;;;;;;2.95;2.10;;;;;;;-6.14;66.37;97642.88;4852694;29;20094;-56
2021/12/20 10:31:26;;;;;;;2.95;2.20;;;;;;;-6.03;66.16;97648.88;4835904;29;20306;-57
2021/12/20 10:34:00;;;;;;;5.50;2.65;;;;;;;-5.77;67.94;97656.72;4851764;29;20032;-58
2021/12/20 10:36:27;;;;;;;3.75;2.40;;;;;;;-5.62;67.70;97658.53;4852095;29;20407;-57
2021/12/20 10:38:57;;;;;;;5.90;2.85;;;;;;;-5.52;68.40;97646.03;4833040;29;20034;-58
2021/12/20 10:41:36;;;;;;;4.70;3.08;;;;;;;-5.55;66.40;97664.50;4851405;29;20046;-57
2021/12/20 10:44:21;;;;;;;6.30;2.90;;;;;;;-5.78;67.15;97659.22;4834259;29;20038;-57
2021/12/20 10:46:56;;;;;;;3.35;2.65;;;;;;;-5.82;66.49;97663.38;4852285;29;20111;-56
2021/12/20 10:49:30;;;;;;;3.15;2.25;;;;;;;-6.02;67.83;97648.06;4851898;29;20030;-56
2021/12/20 10:51:56;;;;;;;2.95;2.38;;;;;;;-5.94;65.88;97684.25;4862025;29;20334;-56
2021/12/20 10:54:29;;;;;;;3.90;2.30;;;;;;;-6.10;66.21;97683.25;4856410;29;20057;-56
2021/12/20 10:57:05;;;;;;;4.20;2.70;;;;;;;-5.80;68.03;97697.03;4856068;29;20263;-57
2021/12/20 10:59:35;;;;;;;4.60;2.80;;;;;;;-6.29;66.26;97630.97;4834159;29;20400;-56
2021/12/20 11:04:51;;;;;;;7.85;3.10;;;;;;;-5.84;65.77;97687.72;4837799;29;20322;-55
2021/12/20 11:09:52;;;;;;;3.65;2.95;;;;;;;-5.64;65.91;97734.97;4851603;29;20343;-56
2021/12/20 11:12:29;;;;;;;4.18;2.97;;;;;;;-6.07;64.70;97663.16;4835779;29;20029;-57
2021/12/20 11:14:59;;;;;;;4.78;2.72;;;;;;;-6.28;67.19;97650.31;4851934;29;20109;-57
2021/12/20 11:17:25;;;;;;;2.88;2.13;;;;;;;-5.85;67.27;97715.44;4851466;29;20096;-56
2021/12/20 11:19:52;;;;;;;3.30;2.45;;;;;;;-5.94;68.23;97724.56;4845375;29;20356;-56
2021/12/20 11:22:24;;;;;;;5.13;2.80;;;;;;;-6.22;66.73;97698.22;4851672;29;20256;-56
2021/12/20 11:25:11;;;;;;;3.20;2.40;;;;;;;-6.20;68.43;97734.34;4852890;29;20125;-56
2021/12/20 11:27:46;;;;;;;3.63;2.38;;;;;;;-6.14;67.10;97739.47;4860330;29;20155;-56
2021/12/20 11:30:15;;;;;;;3.47;2.28;;;;;;;-6.36;67.50;97709.78;4851640;29;20030;-58
2021/12/20 11:32:42;;;;;;;3.35;2.10;;;;;;;-6.14;67.08;97731.91;4845849;29;20037;-56
2021/12/20 11:35:08;;;;;;;5.10;2.38;;;;;;;-6.05;67.08;97740.41;4848094;29;20063;-56
2021/12/20 11:37:34;;;;;;;3.83;2.47;;;;;;;-6.27;67.71;97743.50;4820854;29;20033;-56
2021/12/20 11:40:02;;;;;;;4.03;2.25;;;;;;;-6.18;69.07;97752.00;4857712;29;20336;-56
2021/12/20 11:42:29;;;;;;;4.63;2.78;;;;;;;-6.22;67.62;97751.09;4840953;29;20090;-56
2021/12/20 11:44:57;;;;;;;3.83;2.45;;;;;;;-6.21;70.01;97784.69;4848566;29;20037;-56
2021/12/20 11:47:37;;;;;;;8.52;3.20;;;;;;;-6.24;67.61;97772.91;4851848;29;20033;-56
2021/12/20 11:50:13;;;;;;;3.67;2.45;;;;;;;-6.65;69.33;97717.78;4850824;29;20033;-56
2021/12/20 11:52:44;;;;;;;4.70;2.88;;;;;;;-6.69;69.55;97739.53;4851174;29;20018;-55
2021/12/20 11:55:28;;;;;;;3.40;2.58;;;;;;;-6.57;67.78;97771.56;4851033;29;20030;-56
2021/12/20 11:58:02;;;;;;;5.00;2.55;;;;;;;-6.63;67.60;97763.94;4835919;29;20117;-56
2021/12/20 12:00:29;;;;;;;3.78;2.45;;;;;;;-6.86;67.16;97766.94;4851087;29;20053;-56